Latest Weather Observations for Casterton

IDV60801

Issued at 1:02 am EDT Friday 21 January 2022 (issued every 10 minutes, with the page automatically refreshed every 10 minutes)

About weather observations | Map of weather stations | Latest weather observations for VIC | Other Formats
Station Details ID: 090182 Name: CASTERTON Lat: -37.58 Lon: 141.33 Height: 130.6 m
Data from the previous 72 hours. | See also: Recent months at Casterton
Date/Time
EDT
Temp
°C
App
Temp
°C
Dew
Point
°C
Rel
Hum
%
Delta-T
°C
Wind Press
QNH
hPa
Press
MSL
hPa
Rain since
9am
mm
Dir  Spd
km/h
Gust
km/h
Spd
kts
Gust
kts
21/01:00am 19.6 18.3 11.1 58 4.7 ESE 9 11 5 6 1023.3 1022.9 0.0
21/12:30am 20.0 18.6 11.0 56 4.9 E 9 13 5 7 1023.1 1022.7 0.0
21/12:00am 21.0 18.5 11.1 53 5.5 ESE 15 20 8 11 1022.9 1022.5 0.0
 
Date/Time
EDT
Temp
°C
App
Temp
°C
Dew
Point
°C
Rel
Hum
%
Delta-T
°C
Wind Press
QNH
hPa
Press
MSL
hPa
Rain since
9am
mm
Dir  Spd
km/h
Gust
km/h
Spd
kts
Gust
kts
20/11:30pm 22.0 18.8 11.1 50 6.1 ESE 19 22 10 12 1022.8 1022.4 0.0
20/11:00pm 23.0 19.7 10.8 46 6.8 ESE 19 28 10 15 1022.8 1022.4 0.0
20/10:30pm 23.8 20.3 10.1 42 7.6 ESE 19 28 10 15 1022.5 1022.1 0.0
20/10:00pm 24.8 20.5 9.5 38 8.4 ESE 22 33 12 18 1022.0 1021.6 0.0
20/09:30pm 25.9 21.6 9.3 35 9.1 ESE 22 33 12 18 1021.4 1021.0 0.0
20/09:00pm 26.9 22.9 8.4 31 10.1 ESE 19 30 10 16 1021.0 1020.6 0.0
20/08:30pm 28.4 23.7 7.6 27 11.3 ESE 22 33 12 18 1020.7 1020.3 0.0
20/08:00pm 29.4 24.0 7.9 26 11.7 ESE 26 37 14 20 1020.5 1020.1 0.0
20/07:30pm 29.8 25.3 9.9 29 11.3 SE 24 37 13 20 1020.4 1020.0 0.0
20/07:00pm 30.8 26.5 10.7 29 11.6 SE 24 37 13 20 1020.4 1020.0 0.0
20/06:30pm 31.7 27.3 10.4 27 12.3 E 24 37 13 20 1020.3 1019.9 0.0
20/06:00pm 32.5 27.8 5.9 19 14.3 E 20 35 11 19 1020.3 1019.9 0.0
20/05:30pm 31.9 27.4 6.2 20 13.9 ENE 19 26 10 14 1020.6 1020.2 0.0
20/05:00pm 31.7 26.9 7.4 22 13.3 ESE 22 32 12 17 1021.2 1020.8 0.0
20/04:30pm 32.1 27.7 9.0 24 13.0 ESE 22 33 12 18 1021.4 1021.0 0.0
20/04:00pm 31.8 27.7 8.7 24 12.9 NE 20 33 11 18 1021.9 1021.5 0.0
20/03:30pm 31.4 27.4 8.4 24 12.8 E 19 30 10 16 1022.3 1021.9 0.0
20/03:00pm 30.5 26.7 7.7 24 12.5 ESE 17 28 9 15 1022.8 1022.4 0.0
20/02:30pm 30.6 27.0 8.3 25 12.4 E 17 33 9 18 1023.1 1022.7 0.0
20/02:00pm 30.0 27.3 9.0 27 11.7 ENE 13 24 7 13 1023.5 1023.1 0.0
20/01:30pm 29.6 27.0 10.7 31 10.8 NNE 15 24 8 13 1023.8 1023.4 0.0
20/01:00pm 28.6 26.3 10.3 32 10.3 ENE 13 24 7 13 1024.2 1023.8 0.0
20/12:30pm 28.2 25.3 10.9 34 9.9 NE 17 24 9 13 1024.4 1024.0 0.0
20/12:00pm 27.1 23.8 10.8 36 9.2 NE 19 28 10 15 1024.7 1024.3 0.0
20/11:30am 25.9 22.2 10.1 37 8.8 NNE 20 30 11 16 1024.8 1024.4 0.0
20/11:00am 26.1 22.3 11.1 39 8.5 NNE 22 32 12 17 1025.1 1024.7 0.0
20/10:30am 25.3 21.9 11.1 41 8.0 NE 20 30 11 16 1025.3 1024.9 0.0
20/10:00am 23.8 21.1 11.8 47 6.8 ENE 17 26 9 14 1025.1 1024.7 0.0
20/09:30am 21.0 19.0 12.7 59 4.7 E 15 20 8 11 1025.4 1025.0 0.0
20/09:00am 19.0 16.8 13.2 69 3.3 E 17 24 9 13 1025.2 1024.8 0.0
20/08:30am 17.7 16.4 13.6 77 2.3 E 13 22 7 12 1025.1 1024.7 0.0
20/08:00am 16.3 14.0 14.0 86 1.3 E 19 32 10 17 1025.0 1024.6 0.0
20/07:30am 15.3 12.8 14.2 93 0.6 E 20 32 11 17 1024.9 1024.5 0.0
20/07:00am 14.8 11.6 14.2 96 0.3 ESE 24 35 13 19 1024.5 1024.1 0.0
20/06:30am 14.7 10.6 13.7 94 0.6 ESE 28 39 15 21 1024.1 1023.7 0.0
20/06:00am 14.8 10.9 13.3 91 0.8 ESE 26 33 14 18 1023.4 1023.0 0.0
20/05:30am 14.9 11.6 12.9 88 1.1 E 22 35 12 19 1023.1 1022.7 0.0
20/05:00am 15.0 11.3 12.7 86 1.3 E 24 33 13 18 1022.9 1022.5 0.0
20/04:30am 15.3 10.7 12.4 83 1.6 ESE 28 37 15 20 1022.7 1022.3 0.0
20/04:00am 15.5 10.9 12.3 81 1.8 ESE 28 43 15 23 1022.6 1022.2 0.0
20/03:30am 15.7 11.5 12.3 80 1.9 ESE 26 39 14 21 1022.5 1022.1 0.0
20/03:00am 15.9 11.7 12.5 80 1.9 ESE 26 35 14 19 1022.5 1022.1 0.0
20/02:30am 16.2 12.8 12.4 78 2.1 E 22 39 12 21 1023.0 1022.6 0.0
20/02:00am 16.4 12.0 12.8 79 2.0 E 28 41 15 22 1023.2 1022.8 0.0
20/01:31am 16.7 12.2 12.5 76 2.3 ESE 28 46 15 25 1022.8 1022.4 0.0
20/01:30am 16.7 12.2 12.5 76 2.3 ESE 28 44 15 24 1022.8 1022.4 0.0
20/01:13am 16.9 11.9 12.2 74 2.6 ESE 30 48 16 26 1022.7 1022.3 0.0
20/01:00am 17.1 12.4 12.0 72 2.8 ESE 28 43 15 23 1022.8 1022.4 0.0
20/12:30am 17.4 12.7 11.9 70 3.0 ESE 28 43 15 23 1022.6 1022.2 0.0
20/12:12am 17.7 12.0 11.7 68 3.3 ESE 33 52 18 28 1022.4 1022.0 0.0
20/12:00am 17.9 11.8 11.7 67 3.4 ESE 35 48 19 26 1022.3 1021.9 0.0
 
Date/Time
EDT
Temp
°C
App
Temp
°C
Dew
Point
°C
Rel
Hum
%
Delta-T
°C
Wind Press
QNH
hPa
Press
MSL
hPa
Rain since
9am
mm
Dir  Spd
km/h
Gust
km/h
Spd
kts
Gust
kts
19/11:30pm 18.6 12.5 11.7 64 3.8 ESE 35 57 19 31 1022.4 1022.0 0.0
19/11:00pm 19.3 13.4 11.1 59 4.5 ESE 33 52 18 28 1022.4 1022.0 0.0
19/10:32pm 19.9 14.9 10.9 56 4.9 ESE 28 46 15 25 1022.3 1021.9 0.0
19/10:30pm 19.8 14.8 10.8 56 4.9 ESE 28 43 15 23 1022.3 1021.9 0.0
19/10:00pm 20.4 14.6 10.8 54 5.3 ESE 32 50 17 27 1021.7 1021.3 0.0
19/09:30pm 21.0 15.0 10.8 52 5.6 ESE 33 52 18 28 1021.3 1020.9 0.0
19/09:21pm 21.3 15.4 10.5 50 5.9 ESE 32 52 17 28 1021.3 1020.9 0.0
19/09:00pm 21.9 15.8 10.4 48 6.3 ESE 33 50 18 27 1021.0 1020.6 0.0
19/08:37pm 22.8 16.7 10.3 45 6.9 ESE 33 56 18 30 1020.8 1020.4 0.0
19/08:30pm 23.2 17.1 10.3 44 7.1 ESE 33 50 18 27 1020.8 1020.4 0.0
19/08:07pm 24.2 17.7 10.5 42 7.6 ESE 35 54 19 29 1020.4 1020.0 0.0
19/08:00pm 24.6 18.6 10.8 42 7.7 ESE 33 48 18 26 1020.3 1019.9 0.0
19/07:34pm 25.5 19.6 11.3 41 8.1 ESE 33 52 18 28 1020.1 1019.7 0.0
19/07:30pm 25.5 19.3 11.3 41 8.1 ESE 35 52 19 28 1020.0 1019.6 0.0
19/07:00pm 26.5 19.9 11.4 39 8.6 ESE 37 56 20 30 1019.6 1019.3 0.0
19/06:39pm 27.3 20.7 11.3 37 9.2 ESE 37 57 20 31 1019.3 1019.0 0.0
19/06:30pm 27.2 20.2 11.3 37 9.1 ESE 39 54 21 29 1019.3 1019.0 0.0
19/06:00pm 28.5 22.7 11.6 35 9.8 ESE 33 48 18 26 1019.1 1018.7 0.0
19/05:30pm 28.1 21.7 12.0 36 9.4 ESE 37 50 20 27 1019.0 1018.6 0.0
19/05:00pm 29.2 23.5 11.7 34 10.2 ESE 33 54 18 29 1018.8 1018.4 0.0
19/04:53pm 28.6 22.3 11.2 34 10.0 ESE 35 54 19 29 1018.8 1018.4 0.0
19/04:30pm 28.7 22.9 10.8 33 10.2 ESE 32 46 17 25 1018.9 1018.5 0.0
19/04:00pm 28.6 22.3 11.2 34 10.0 ESE 35 54 19 29 1019.0 1018.6 0.0
19/03:31pm 29.4 23.2 11.5 33 10.4 ESE 35 54 19 29 1019.2 1018.8 0.0
19/03:30pm 28.9 22.3 11.5 34 10.1 ESE 37 54 20 29 1019.2 1018.8 0.0
19/03:10pm 28.3 21.8 10.5 33 10.1 E 35 48 19 26 1019.3 1019.0 0.0
19/03:03pm 28.9 22.5 10.6 32 10.4 ESE 35 48 19 26 1019.3 1019.0 0.0
19/03:00pm 29.1 22.5 11.2 33 10.3 SE 37 57 20 31 1019.2 1018.8 0.0
19/02:30pm 28.0 21.6 10.7 34 9.9 ESE 35 54 19 29 1019.4 1019.1 0.0
19/02:01pm 27.2 20.3 11.7 38 8.9 ESE 39 59 21 32 1019.5 1019.2 0.0
19/02:00pm 27.1 20.3 12.0 39 8.7 ESE 39 50 21 27 1019.6 1019.3 0.0
19/01:30pm 26.3 19.9 12.0 41 8.3 ESE 37 56 20 30 1020.0 1019.6 0.0
19/01:00pm 25.9 18.9 12.4 43 7.8 ESE 41 59 22 32 1020.2 1019.8 0.0
19/12:38pm 25.1 19.2 12.3 45 7.4 ESE 35 56 19 30 1020.2 1019.8 0.0
19/12:30pm 24.6 18.5 11.9 45 7.3 ESE 35 50 19 27 1020.3 1019.9 0.0
19/12:00pm 23.2 17.0 12.8 52 6.0 ESE 37 50 20 27 1020.6 1020.2 0.0
19/11:31am 22.7 17.7 13.5 56 5.4 ESE 32 50 17 27 1021.0 1020.6 0.0
19/11:30am 22.6 17.5 13.7 57 5.2 ESE 33 50 18 27 1021.0 1020.6 0.0
19/11:04am 21.1 16.1 13.3 61 4.5 ESE 32 54 17 29 1021.1 1020.7 0.0
19/11:00am 21.1 15.9 13.5 62 4.4 ESE 33 48 18 26 1021.1 1020.7 0.0
19/10:30am 20.0 15.0 14.1 69 3.4 ESE 33 43 18 23 1021.3 1020.9 0.0
19/10:07am 19.1 14.3 14.1 73 2.9 ESE 32 54 17 29 1021.2 1020.8 0.0
19/10:00am 19.0 14.7 14.5 75 2.6 ESE 30 46 16 25 1021.2 1020.8 0.0
19/09:56am 18.9 15.1 14.6 76 2.5 ESE 28 46 15 25 1021.1 1020.7 0.0
19/09:30am 18.3 13.6 14.8 80 2.0 ESE 33 48 18 26 1021.0 1020.6 0.0
19/09:00am 18.1 14.3 14.6 80 2.0 SE 28 46 15 25 1020.6 1020.2 0.0
19/08:55am 18.1 14.1 14.2 78 2.3 SE 28 46 15 25 1020.4 1020.0 0.0
19/08:30am 17.2 14.2 14.8 86 1.4 SE 24 35 13 19 1020.3 1019.9 0.0
19/08:00am 16.0 13.3 15.5 97 0.3 SE 24 33 13 18 1020.2 1019.8 0.0
19/07:30am 14.9 12.6 14.7 99 0.1 SE 20 30 11 16 1019.9 1019.5 0.0
19/07:00am 14.0 12.4 13.8 99 0.1 SSE 15 24 8 13 1019.5 1019.2 0.0
19/06:30am 13.6 11.4 13.4 99 0.1 SSE 17 26 9 14 1019.2 1018.8 0.0
19/06:00am 14.2 11.6 13.2 94 0.6 SSE 19 32 10 17 1019.3 1019.0 0.0
19/05:30am 14.1 11.7 12.8 92 0.7 SSE 17 26 9 14 1019.3 1019.0 0.0
19/05:00am 13.8 11.4 12.5 92 0.7 SSE 17 35 9 19 1019.3 1019.0 0.0
19/04:30am 13.5 10.4 12.1 91 0.8 SE 20 32 11 17 1019.1 1018.7 0.0
19/04:00am 13.7 10.3 11.4 86 1.2 SE 20 33 11 18 1019.0 1018.6 0.0
19/03:30am 14.5 10.9 10.7 78 2.0 SE 20 30 11 16 1018.9 1018.5 0.0
19/03:00am 14.6 11.5 10.4 76 2.2 SE 17 30 9 16 1018.9 1018.5 0.0
19/02:30am 14.7 10.7 8.9 68 3.0 SE 20 35 11 19 1019.2 1018.8 0.0
19/02:00am 14.5 10.6 8.5 67 3.0 SE 19 28 10 15 1019.2 1018.8 0.0
19/01:30am 14.3 10.5 9.7 74 2.4 SSE 20 28 11 15 1019.5 1019.2 0.0
19/01:00am 14.0 10.5 10.2 78 2.0 SSE 19 28 10 15 1019.7 1019.4 0.0
19/12:30am 13.4 10.4 10.6 83 1.5 SE 17 28 9 15 1019.7 1019.4 0.0
19/12:00am 13.7 10.0 10.3 80 1.8 SSE 20 32 11 17 1019.9 1019.5 0.0
 
Date/Time
EDT
Temp
°C
App
Temp
°C
Dew
Point
°C
Rel
Hum
%
Delta-T
°C
Wind Press
QNH
hPa
Press
MSL
hPa
Rain since
9am
mm
Dir  Spd
km/h
Gust
km/h
Spd
kts
Gust
kts
18/11:30pm 14.1 10.6 10.1 77 2.1 SSE 19 28 10 15 1019.6 1019.3 0.0
18/11:00pm 14.6 11.1 10.2 75 2.3 SSE 19 30 10 16 1019.6 1019.3 0.0
18/10:30pm 14.0 11.1 9.6 75 2.3 SE 15 22 8 12 1019.6 1019.3 0.0
18/10:00pm 14.8 11.0 9.8 72 2.6 SE 20 33 11 18 1019.5 1019.2 0.0
18/09:30pm 15.2 11.4 9.8 70 2.8 SSE 20 30 11 16 1019.4 1019.1 0.0
18/09:00pm 15.3 11.3 9.2 67 3.1 SSE 20 32 11 17 1019.4 1019.1 0.0
18/08:30pm 15.6 11.7 9.3 66 3.3 SE 20 41 11 22 1019.0 1018.6 0.0
18/08:00pm 15.9 11.7 9.8 67 3.2 SSE 22 33 12 18 1018.2 1017.8 0.0
18/07:30pm 16.3 11.8 10.2 67 3.2 SSE 24 35 13 19 1017.5 1017.1 0.0
18/07:00pm 16.9 12.2 9.3 61 4.0 SSE 24 35 13 19 1017.5 1017.1 0.0
18/06:30pm 17.1 12.3 9.0 59 4.2 SSE 24 33 13 18 1017.1 1016.7 0.0
18/06:00pm 17.4 11.8 8.8 57 4.5 SSE 28 41 15 22 1017.0 1016.6 0.0
18/05:30pm 17.6 11.4 9.2 58 4.4 SSE 32 43 17 23 1017.1 1016.7 0.0
18/05:00pm 18.3 12.9 9.4 56 4.7 SSE 28 39 15 21 1017.1 1016.7 0.0
18/04:30pm 19.6 14.8 8.9 50 5.6 SSE 24 39 13 21 1017.1 1016.7 0.0
18/04:00pm 19.5 14.0 9.1 51 5.5 SSE 28 37 15 20 1017.1 1016.7 0.0
18/03:30pm 20.5 15.6 8.5 46 6.3 SSE 24 33 13 18 1017.0 1016.6 0.0
18/03:00pm 19.2 14.1 7.6 47 5.9 SSE 24 35 13 19 1017.2 1016.8 0.0
18/02:30pm 18.9 15.4 10.2 57 4.7 S 19 26 10 14 1017.4 1017.0 0.0
18/02:00pm 18.6 13.6 9.4 55 4.9 SSE 26 35 14 19 1017.6 1017.2 0.0
18/01:30pm 18.1 14.5 10.5 61 4.1 SSE 20 28 11 15 1017.9 1017.5 0.0
18/01:00pm 18.0 13.7 9.4 57 4.5 SSE 22 35 12 19 1018.1 1017.7 0.0
18/12:30pm 18.0 13.4 8.0 52 5.1 SSE 22 30 12 16 1018.0 1017.6 0.0
18/12:00pm 18.4 14.3 10.0 58 4.5 SSE 22 33 12 18 1018.0 1017.6 0.0
18/11:30am 16.8 13.2 10.4 66 3.4 SSE 20 33 11 18 1018.1 1017.7 0.0
18/11:00am 16.4 12.1 9.3 63 3.7 SSE 22 33 12 18 1018.2 1017.8 0.0
18/10:30am 17.2 12.2 8.1 55 4.7 SSE 24 35 13 19 1017.9 1017.5 0.0
18/10:00am 17.1 12.3 8.8 58 4.3 S 24 35 13 19 1017.8 1017.4 0.0
18/09:30am 16.1 13.2 11.1 72 2.7 S 17 24 9 13 1017.5 1017.1 0.0
18/09:00am 15.3 12.1 11.3 77 2.2 S 19 26 10 14 1017.3 1016.9 0.0
18/08:30am 14.7 12.5 12.0 84 1.5 SSE 15 22 8 12 1016.9 1016.5 0.0
18/08:00am 13.4 11.4 12.6 95 0.4 S 15 20 8 11 1016.8 1016.4 0.0
18/07:30am 12.6 10.9 12.4 99 0.1 S 13 17 7 9 1016.5 1016.1 0.0
18/07:00am 11.9 10.3 11.7 99 0.1 SSE 11 15 6 8 1016.3 1015.9 0.0
18/06:30am 11.6 10.0 11.6 100 0.0 SSE 11 15 6 8 1016.2 1015.8 0.0
18/06:00am 12.2 10.8 12.2 100 0.0 SSE 11 15 6 8 1015.9 1015.5 0.0
18/05:30am 11.3 10.0 11.3 100 0.0 SSE 9 15 5 8 1015.7 1015.3 0.0
18/05:00am 10.3 9.1 10.3 100 0.0 S 7 9 4 5 1015.1 1014.7 0.0
18/04:30am 10.0 8.3 10.0 100 0.0 S 9 11 5 6 1014.8 1014.4 0.0
18/04:00am 9.7 8.3 9.7 100 0.0 S 7 9 4 5 1014.8 1014.4 0.0
18/03:30am 9.6 8.4 9.6 100 0.0 S 6 7 3 4 1015.2 1014.8 0.0
18/03:00am 10.6 9.5 10.6 100 0.0 S 7 9 4 5 1015.5 1015.1 0.0
18/02:30am 11.3 10.3 11.1 99 0.1 S 7 9 4 5 1015.4 1015.0 0.0
18/02:00am 11.6 10.3 11.3 98 0.2 SSE 9 11 5 6 1015.5 1015.1 0.0
18/01:30am 12.7 10.9 10.8 88 1.0 S 11 15 6 8 1015.7 1015.3 0.0

Other formats

Comma delimited format used in spreadsheet applications
http://www.bom.gov.au/fwo/IDV60801/IDV60801.95825.axf

JavaScript Object Notation format (JSON) in row-major order
http://www.bom.gov.au/fwo/IDV60801/IDV60801.95825.json

Data quality

Most of these data are generated automatically and are frequently updated. Quality checks on data are not normally performed. It is possible for incorrect values to appear. Refer to information at About Latest Weather Observations and please check the disclaimer before using these data.